Dati Storici

Data ora Umidita' aria (%) Temperatura aria (°C) Rad globale (W/m²) Gonioanemometro (°) Tacoanemometro (m/s) Pioggia (mm)
22-10-2012 02:00 96.1 % 12.426 1.838 264.206 0.922 0
22-10-2012 01:50 96.2 % 12.466 1.556 256.566 1.255 0
22-10-2012 01:40 96.2 % 12.319 1.825 279.92 0.625 0
22-10-2012 01:30 96 % 12.168 1.569 282.343 0.695 0
22-10-2012 01:20 95.8 % 12.108 1.671 244.65 0.727 0
22-10-2012 01:10 95.7 % 12.093 1.915 243.777 0.625 0
22-10-2012 01:00 95.4 % 12.063 1.825 232.645 0.821 0
22-10-2012 00:50 95.4 % 12.186 2.3 222.666 0.738 0
22-10-2012 00:40 95.3 % 12.285 2.659 239.734 0.461 0
22-10-2012 00:30 95.3 % 12.563 2.379 231.992 0.554 0
22-10-2012 00:20 95.5 % 13.014 1.956 219.321 0.623 0
22-10-2012 00:10 95.6 % 13.245 1.724 241.164 0.628 0
22-10-2012 00:00 95.5 % 13.354 1.61 268.009 0.585 0
21-10-2012 23:50 95.7 % 13.56 1.635 264.752 0.312 0
21-10-2012 23:40 95.7 % 13.657 1.802 246.557 0.724 0
21-10-2012 23:30 95.7 % 13.708 1.879 252.675 0.835 0
21-10-2012 23:20 95.7 % 13.786 1.724 249.481 1.327 0
21-10-2012 23:10 95.5 % 13.714 1.61 264.455 0.798 0
21-10-2012 23:00 95 % 13.531 1.699 248.403 0.082 0
21-10-2012 22:50 94.9 % 13.65 1.533 248.629 0.341 0

I dati sono presentati in modo automatico a scopo informativo. In seguito a verifica i dati possono subire modifiche o essere invalidati e non riportati negli archivi definitivi.